createdAt,value
2019-01-24T00:00:54.274Z,78.13
2019-01-24T00:01:54.520Z,78.24
2019-01-24T00:02:55.468Z,78.51
2019-01-24T00:03:54.656Z,78.09
2019-01-24T00:04:54.677Z,78.32
2019-01-24T00:05:54.209Z,78.37
2019-01-24T00:06:54.369Z,78.68
2019-01-24T00:07:55.088Z,78.32
2019-01-24T00:08:54.344Z,78.3
2019-01-24T00:09:54.365Z,78.07
2019-01-24T00:10:56.082Z,77.99
2019-01-24T00:11:54.635Z,78
2019-01-24T00:12:54.259Z,78.26
2019-01-24T00:13:54.311Z,78.15
2019-01-24T00:14:54.360Z,78.17
2019-01-24T00:15:54.300Z,78.32
2019-01-24T00:16:54.874Z,78.08
2019-01-24T00:17:54.272Z,77.8
2019-01-24T00:18:54.350Z,77.94
2019-01-24T00:19:54.438Z,78.06
2019-01-24T00:20:54.272Z,78.07
2019-01-24T00:21:56.041Z,78.23
2019-01-24T00:22:54.487Z,78.09
2019-01-24T00:23:54.893Z,77.72
2019-01-24T00:24:54.228Z,77.69
2019-01-24T00:25:54.177Z,78.12
2019-01-24T00:26:54.207Z,77.99
2019-01-24T00:27:54.191Z,77.85
2019-01-24T00:28:54.331Z,77.83
2019-01-24T00:29:54.870Z,77.62
2019-01-24T00:30:54.306Z,77.56
2019-01-24T00:31:54.203Z,77.5
2019-01-24T00:32:54.296Z,77.71
2019-01-24T00:33:54.358Z,78.07
2019-01-24T00:34:54.186Z,78.16
2019-01-24T00:35:54.421Z,78.22
2019-01-24T00:36:54.179Z,78.16
2019-01-24T00:37:54.458Z,77.93
2019-01-24T00:38:54.362Z,77.83
2019-01-24T00:39:54.503Z,77.99
2019-01-24T00:40:54.403Z,78.19
2019-01-24T00:41:54.671Z,77.79
2019-01-24T00:42:54.677Z,77.83
2019-01-24T00:43:54.632Z,77.83
2019-01-24T00:44:54.433Z,77.71
2019-01-24T00:45:54.184Z,77.73
2019-01-24T00:46:54.487Z,77.83
2019-01-24T00:47:54.484Z,77.74
2019-01-24T00:48:54.546Z,77.91
2019-01-24T00:49:55.112Z,77.92
2019-01-24T00:50:54.894Z,77.91
2019-01-24T00:51:54.328Z,77.84
2019-01-24T00:52:54.164Z,77.31
2019-01-24T00:53:54.657Z,77.18
2019-01-24T00:54:54.503Z,77.25
2019-01-24T00:55:54.212Z,77.28
2019-01-24T00:56:54.208Z,77.27
2019-01-24T00:57:54.525Z,77.67
2019-01-24T00:58:54.216Z,77.53
2019-01-24T00:59:54.177Z,77.51
2019-01-24T01:00:54.290Z,77.43
2019-01-24T01:01:54.424Z,77.25
2019-01-24T01:02:54.199Z,77.42
2019-01-24T01:03:54.455Z,77.31
2019-01-24T01:04:54.374Z,77.51
2019-01-24T01:05:54.299Z,77.35
2019-01-24T01:06:54.479Z,77.34
2019-01-24T01:07:54.389Z,77.46
2019-01-24T01:08:54.138Z,77.47
2019-01-24T01:09:54.303Z,77.19
2019-01-24T01:10:54.300Z,77.14
2019-01-24T01:11:54.160Z,77.23
2019-01-24T01:12:54.240Z,77.36
2019-01-24T01:13:54.228Z,77.24
2019-01-24T01:14:54.298Z,77.17
2019-01-24T01:15:54.245Z,77.33
2019-01-24T01:16:54.110Z,77.31
2019-01-24T01:17:54.132Z,77.25
2019-01-24T01:18:54.185Z,77.63
2019-01-24T01:19:54.166Z,77.71
2019-01-24T01:20:54.145Z,77.32
2019-01-24T01:21:54.284Z,77.38
2019-01-24T01:22:54.290Z,77.31
2019-01-24T01:23:54.108Z,77.43
2019-01-24T01:24:54.514Z,77.35
2019-01-24T01:25:54.208Z,77.41
2019-01-24T01:26:54.149Z,77.9
2019-01-24T01:27:54.112Z,77.75
2019-01-24T01:28:55.194Z,77.81
2019-01-24T01:29:54.194Z,77.91
2019-01-24T01:30:54.105Z,77.75
2019-01-24T01:31:54.104Z,77.51
2019-01-24T01:32:54.098Z,77.62
2019-01-24T01:33:54.095Z,77.51
2019-01-24T01:34:54.189Z,77.64
2019-01-24T01:35:54.103Z,78.01
2019-01-24T01:36:54.078Z,77.65
2019-01-24T01:37:54.397Z,77.19
2019-01-24T01:38:54.104Z,76.9
2019-01-24T01:39:54.212Z,76.24
2019-01-24T01:40:54.087Z,76.25
2019-01-24T01:41:54.642Z,76.43
2019-01-24T01:42:54.330Z,76.44
2019-01-24T01:43:54.083Z,76.37
2019-01-24T01:44:54.121Z,76.3
2019-01-24T01:45:54.122Z,76.28
2019-01-24T01:46:54.136Z,76.24
2019-01-24T01:47:55.809Z,76.18
2019-01-24T01:48:54.151Z,76.12
2019-01-24T01:49:54.269Z,76.17
2019-01-24T01:50:54.074Z,76.03
2019-01-24T01:51:54.439Z,75.83
2019-01-24T01:52:54.116Z,75.93
2019-01-24T01:53:54.273Z,76.03
2019-01-24T01:54:54.716Z,76.01
2019-01-24T01:55:54.917Z,75.9
2019-01-24T01:56:54.218Z,75.57
2019-01-24T01:57:55.192Z,75.66
2019-01-24T01:58:54.924Z,75.28
2019-01-24T01:59:55.278Z,75.52
2019-01-24T02:00:54.143Z,75.4
2019-01-24T02:01:54.066Z,75.46
2019-01-24T02:02:54.597Z,75.59
2019-01-24T02:03:54.277Z,75.4
2019-01-24T02:04:54.115Z,75.34
2019-01-24T02:05:54.102Z,75.04
2019-01-24T02:06:54.556Z,75.19
2019-01-24T02:07:54.306Z,75.39
2019-01-24T02:08:54.066Z,75.42
2019-01-24T02:09:54.304Z,75.19
2019-01-24T02:10:54.322Z,75.09
2019-01-24T02:11:54.339Z,75.11
2019-01-24T02:12:54.066Z,75.22
2019-01-24T02:13:54.126Z,75.81
2019-01-24T02:14:54.330Z,76.08
2019-01-24T02:15:54.305Z,76.36
2019-01-24T02:16:54.098Z,76.46
2019-01-24T02:17:54.112Z,75.8
2019-01-24T02:18:54.154Z,75.25
2019-01-24T02:19:54.047Z,75.06
2019-01-24T02:20:54.503Z,74.39
2019-01-24T02:21:54.595Z,74.65
2019-01-24T02:22:54.179Z,74.87
2019-01-24T02:23:54.040Z,74.82
2019-01-24T02:24:54.245Z,74.83
2019-01-24T02:25:54.133Z,75.15
2019-01-24T02:26:54.013Z,74.92
2019-01-24T02:27:54.329Z,74.9
2019-01-24T02:28:54.257Z,74.93
2019-01-24T02:29:54.334Z,74.74
2019-01-24T02:30:54.250Z,74.45
2019-01-24T02:31:54.452Z,74.41
2019-01-24T02:32:54.606Z,74.62
2019-01-24T02:33:54.094Z,74.15
2019-01-24T02:34:54.480Z,74.42
2019-01-24T02:35:54.027Z,74.52
2019-01-24T02:36:54.121Z,74.4
2019-01-24T02:37:54.174Z,74.33
2019-01-24T02:38:54.121Z,74.27
2019-01-24T02:39:54.257Z,74.11
2019-01-24T02:40:54.315Z,74.06
2019-01-24T02:41:54.318Z,74.22
2019-01-24T02:42:54.366Z,74.28
2019-01-24T02:43:54.334Z,74.62
2019-01-24T02:44:54.385Z,75.09
2019-01-24T02:45:54.105Z,75.32
2019-01-24T02:46:53.972Z,75.39
2019-01-24T02:47:54.565Z,75.51
2019-01-24T02:48:54.098Z,75.75
2019-01-24T02:49:54.872Z,76.46
2019-01-24T02:50:54.291Z,76.62
2019-01-24T02:51:54.295Z,76.73
2019-01-24T02:52:54.056Z,76.56
2019-01-24T02:53:54.423Z,76.41
2019-01-24T02:54:54.502Z,76.3
2019-01-24T02:55:54.853Z,76.74
2019-01-24T02:56:54.023Z,76.84
2019-01-24T02:57:53.947Z,76.94
2019-01-24T02:58:54.317Z,77.18
2019-01-24T02:59:54.258Z,76.95
2019-01-24T03:00:53.942Z,77.09
2019-01-24T03:01:53.963Z,77.16
2019-01-24T03:02:54.139Z,77.25
2019-01-24T03:03:54.344Z,77.21
2019-01-24T03:04:57.379Z,77.04
2019-01-24T03:05:53.995Z,76.98
2019-01-24T03:06:54.115Z,77.17
2019-01-24T03:07:54.008Z,77.31
2019-01-24T03:08:53.915Z,77.28
2019-01-24T03:09:55.480Z,77.22
2019-01-24T03:10:54.001Z,77
2019-01-24T03:11:54.037Z,77.06
2019-01-24T03:12:54.129Z,76.97
2019-01-24T03:13:53.956Z,76.9
2019-01-24T03:14:54.040Z,76.89
2019-01-24T03:15:54.084Z,76.79
2019-01-24T03:16:54.196Z,77
2019-01-24T03:17:54.020Z,77.34
2019-01-24T03:18:54.280Z,77.05
2019-01-24T03:19:54.210Z,77.05
2019-01-24T03:20:53.931Z,76.83
2019-01-24T03:21:54.135Z,77.13
2019-01-24T03:22:54.286Z,77.15
2019-01-24T03:23:53.958Z,76.91
2019-01-24T03:24:54.192Z,76.59
2019-01-24T03:25:53.981Z,76.36
2019-01-24T03:26:53.926Z,76.45
2019-01-24T03:27:53.987Z,76.83
2019-01-24T03:28:54.183Z,76.84
2019-01-24T03:29:54.056Z,77.11
2019-01-24T03:30:54.217Z,77.24
2019-01-24T03:31:53.964Z,77.22
2019-01-24T03:32:54.324Z,77.35
2019-01-24T03:33:54.086Z,77.2
2019-01-24T03:34:54.163Z,77.23
2019-01-24T03:35:54.179Z,77.4
2019-01-24T03:36:54.023Z,77.46
2019-01-24T03:37:53.699Z,77.61
2019-01-24T03:38:54.437Z,77.43
2019-01-24T03:39:54.091Z,77.76
2019-01-24T03:40:54.316Z,77.96
2019-01-24T03:41:53.951Z,77.8
2019-01-24T03:42:53.965Z,78.03
2019-01-24T03:43:53.936Z,78.04
2019-01-24T03:44:54.158Z,78.22
2019-01-24T03:45:53.895Z,78.03
2019-01-24T03:46:53.865Z,78.04
2019-01-24T03:47:53.998Z,77.72
2019-01-24T03:48:53.863Z,77.72
2019-01-24T03:49:53.988Z,77.44
2019-01-24T03:50:54.225Z,77.24
2019-01-24T03:51:54.419Z,77.32
2019-01-24T03:52:54.000Z,77.46
2019-01-24T03:53:54.215Z,77.62
2019-01-24T03:54:54.038Z,77.58
2019-01-24T03:55:54.060Z,77.42
2019-01-24T03:56:53.966Z,77.37
2019-01-24T03:57:54.146Z,77.33
2019-01-24T03:58:54.048Z,77.21
2019-01-24T03:59:54.249Z,77.4
2019-01-24T04:00:53.887Z,77.38
2019-01-24T04:01:53.963Z,77.22
2019-01-24T04:02:53.880Z,77.14
2019-01-24T04:03:53.883Z,77.1
2019-01-24T04:04:53.859Z,77.08
2019-01-24T04:05:54.083Z,76.89
2019-01-24T04:06:54.315Z,76.74
2019-01-24T04:07:54.753Z,76.03
2019-01-24T04:08:54.094Z,75.76
2019-01-24T04:09:54.161Z,76.09
2019-01-24T04:10:54.954Z,76.09
2019-01-24T04:11:54.157Z,76.13
2019-01-24T04:12:53.878Z,76.17
2019-01-24T04:13:54.142Z,75.85
2019-01-24T04:14:54.341Z,76
2019-01-24T04:15:54.045Z,75.82
2019-01-24T04:16:54.098Z,75.56
2019-01-24T04:17:55.211Z,75.49
2019-01-24T04:18:54.171Z,75.58
2019-01-24T04:19:54.167Z,75.34
2019-01-24T04:20:54.330Z,75.3
2019-01-24T04:21:54.204Z,75.36
2019-01-24T04:22:53.820Z,75.35
2019-01-24T04:23:55.613Z,75.28
2019-01-24T04:24:53.821Z,75.34
2019-01-24T04:25:53.826Z,75.3
2019-01-24T04:26:53.890Z,75.11
2019-01-24T04:27:53.970Z,75.11
2019-01-24T04:28:53.886Z,75.19
2019-01-24T04:29:54.138Z,75.15
2019-01-24T04:30:54.067Z,75.03
2019-01-24T04:31:54.059Z,74.81
2019-01-24T04:32:55.796Z,74.73
2019-01-24T04:33:54.486Z,74.4
2019-01-24T04:34:55.502Z,74.44
2019-01-24T04:35:54.093Z,74.67
2019-01-24T04:36:53.861Z,74.83
2019-01-24T04:37:53.799Z,74.7
2019-01-24T04:38:53.774Z,74.8
2019-01-24T04:39:53.836Z,74.61
2019-01-24T04:40:53.794Z,74.66
2019-01-24T04:41:53.831Z,74.61
2019-01-24T04:42:53.786Z,74.56
2019-01-24T04:43:53.816Z,74.71
2019-01-24T04:45:53.830Z,74.61
2019-01-24T04:46:53.921Z,74.71
2019-01-24T04:47:54.107Z,74.71
2019-01-24T04:48:53.807Z,74.77
2019-01-24T04:49:54.315Z,74.73
2019-01-24T04:50:53.763Z,74.49
2019-01-24T04:51:53.821Z,74.53
2019-01-24T04:52:53.793Z,74.39
2019-01-24T04:53:53.845Z,74.57
2019-01-24T04:54:54.215Z,74.57
2019-01-24T04:55:53.798Z,74.16
2019-01-24T04:56:53.852Z,74.3
2019-01-24T04:57:55.272Z,74.56
2019-01-24T04:58:53.755Z,74.51
2019-01-24T04:59:54.212Z,74.16
2019-01-24T05:00:54.092Z,74.41
2019-01-24T05:01:53.864Z,74.4
2019-01-24T05:02:54.127Z,74.54
2019-01-24T05:03:53.806Z,74.57
2019-01-24T05:04:53.780Z,74.48
2019-01-24T05:05:53.819Z,74.61
2019-01-24T05:06:53.776Z,74.73
2019-01-24T05:07:54.012Z,74.72
2019-01-24T05:08:53.820Z,74.76
2019-01-24T05:09:54.117Z,74.53
2019-01-24T05:10:53.850Z,74.8
2019-01-24T05:11:53.812Z,74.52
2019-01-24T05:12:53.885Z,74.7
2019-01-24T05:13:54.236Z,74.83
2019-01-24T05:14:54.152Z,74.83
2019-01-24T05:15:53.795Z,74.92
2019-01-24T05:16:55.340Z,74.76
2019-01-24T05:17:53.802Z,74.88
2019-01-24T05:18:54.184Z,75
2019-01-24T05:19:54.481Z,74.91
2019-01-24T05:20:53.816Z,75.03
2019-01-24T05:21:53.901Z,75.15
2019-01-24T05:22:54.247Z,75.11
2019-01-24T05:23:54.211Z,75.2
2019-01-24T05:24:53.997Z,75.26
2019-01-24T05:25:54.369Z,75.25
2019-01-24T05:26:54.032Z,75.18
2019-01-24T05:27:53.974Z,75.11
2019-01-24T05:28:54.260Z,75.08
2019-01-24T05:29:53.879Z,75.26
2019-01-24T05:30:54.161Z,75.21
2019-01-24T05:31:53.687Z,75.3
2019-01-24T05:32:55.646Z,75.29
2019-01-24T05:33:53.849Z,75.27
2019-01-24T05:34:54.374Z,75.34
2019-01-24T05:35:54.104Z,75.21
2019-01-24T05:36:53.852Z,75.36
2019-01-24T05:37:54.614Z,75.37
2019-01-24T05:38:53.786Z,75.21
2019-01-24T05:39:53.901Z,75.36
2019-01-24T05:40:53.860Z,75.26
2019-01-24T05:41:53.734Z,75.22
2019-01-24T05:42:53.856Z,75.12
2019-01-24T05:43:53.869Z,75.11
2019-01-24T05:44:54.573Z,75.03
2019-01-24T05:45:53.687Z,75
2019-01-24T05:46:53.922Z,75.1
2019-01-24T05:47:53.740Z,75.16
2019-01-24T05:48:53.863Z,75.19
2019-01-24T05:49:53.785Z,75.17
2019-01-24T05:50:53.831Z,75.19
2019-01-24T05:51:54.345Z,75.08
2019-01-24T05:52:53.816Z,75.12
2019-01-24T05:53:53.679Z,75.15
2019-01-24T05:54:54.118Z,75.21
2019-01-24T05:55:53.673Z,75.29
2019-01-24T05:56:53.778Z,75.29
2019-01-24T05:57:53.986Z,75.34
2019-01-24T05:58:53.834Z,75.35
2019-01-24T05:59:53.844Z,75.41
2019-01-24T06:00:55.390Z,75.34
2019-01-24T06:01:53.677Z,75.15
2019-01-24T06:02:53.923Z,75.39
2019-01-24T06:03:53.678Z,75.39
2019-01-24T06:04:54.029Z,75.51
2019-01-24T06:05:53.684Z,75.5
2019-01-24T06:06:53.714Z,75.49
2019-01-24T06:07:53.950Z,75.45
2019-01-24T06:08:55.583Z,75.42
2019-01-24T06:09:53.637Z,75.39
2019-01-24T06:10:53.796Z,75.4
2019-01-24T06:11:53.972Z,75.37
2019-01-24T06:12:55.454Z,75.34
2019-01-24T06:13:53.738Z,75.18
2019-01-24T06:14:53.850Z,75.17
2019-01-24T06:15:54.612Z,75.36
2019-01-24T06:16:55.319Z,75.37
2019-01-24T06:17:53.687Z,75.36
2019-01-24T06:18:55.198Z,75.38
2019-01-24T06:19:53.773Z,75.43
2019-01-24T06:20:54.973Z,75.49
2019-01-24T06:21:53.646Z,75.59
2019-01-24T06:22:53.700Z,75.55
2019-01-24T06:23:53.652Z,75.58
2019-01-24T06:24:53.804Z,75.53
2019-01-24T06:25:53.697Z,75.56
2019-01-24T06:26:53.783Z,75.4
2019-01-24T06:27:53.990Z,75.54
2019-01-24T06:28:53.616Z,75.5
2019-01-24T06:29:53.669Z,75.56
2019-01-24T06:30:56.621Z,75.62
2019-01-24T06:31:53.585Z,75.67
2019-01-24T06:32:53.673Z,75.72
2019-01-24T06:33:53.671Z,75.71
2019-01-24T06:34:53.813Z,75.66
2019-01-24T06:35:53.663Z,75.71
2019-01-24T06:36:54.411Z,75.78
2019-01-24T06:37:53.709Z,75.81
2019-01-24T06:38:53.632Z,75.87
2019-01-24T06:39:53.613Z,75.95
2019-01-24T06:40:53.678Z,75.92
2019-01-24T06:41:53.671Z,75.95
2019-01-24T06:42:54.033Z,75.89
2019-01-24T06:43:53.689Z,75.82
2019-01-24T06:44:53.656Z,75.82
2019-01-24T06:45:53.748Z,75.77
2019-01-24T06:46:53.704Z,75.81
2019-01-24T06:47:53.700Z,75.82
2019-01-24T06:48:53.728Z,75.87
2019-01-24T06:49:53.931Z,75.94
2019-01-24T06:50:53.626Z,76.04
2019-01-24T06:51:55.233Z,76.03
2019-01-24T06:52:55.345Z,75.96
2019-01-24T06:53:53.777Z,75.95
2019-01-24T06:54:54.123Z,75.97
2019-01-24T06:55:53.818Z,75.93
2019-01-24T06:56:53.861Z,76.02
2019-01-24T06:57:53.637Z,75.96
2019-01-24T06:58:53.599Z,76.07
2019-01-24T06:59:54.274Z,76.18
2019-01-24T07:00:54.580Z,76
2019-01-24T07:01:54.029Z,76.24
2019-01-24T07:02:54.842Z,76.1
2019-01-24T07:03:53.888Z,76.14
2019-01-24T07:04:53.791Z,76.07
2019-01-24T07:05:55.753Z,76.07
2019-01-24T07:06:53.602Z,76.25
2019-01-24T07:07:53.601Z,76.23
2019-01-24T07:08:53.699Z,76.15
2019-01-24T07:09:53.584Z,76.19
2019-01-24T07:10:53.772Z,76.15
2019-01-24T07:11:53.782Z,76.27
2019-01-24T07:12:53.623Z,76.37
2019-01-24T07:13:53.881Z,76.55
2019-01-24T07:14:53.534Z,76.62
2019-01-24T07:15:53.654Z,76.71
2019-01-24T07:16:53.654Z,76.79
2019-01-24T07:17:53.835Z,76.68
2019-01-24T07:18:53.987Z,76.53
2019-01-24T07:19:53.649Z,76.69
2019-01-24T07:20:53.630Z,76.65
2019-01-24T07:21:54.859Z,76.44
2019-01-24T07:22:53.555Z,76.65
2019-01-24T07:23:53.832Z,76.57
2019-01-24T07:24:53.503Z,76.41
2019-01-24T07:25:54.278Z,75.84
2019-01-24T07:26:53.542Z,75.94
2019-01-24T07:27:54.818Z,75.71
2019-01-24T07:28:53.525Z,75.54
2019-01-24T07:29:54.356Z,75.54
2019-01-24T07:30:53.655Z,75.87
2019-01-24T07:31:53.662Z,76.44
2019-01-24T07:32:53.797Z,76.39
2019-01-24T07:33:53.705Z,76.24
2019-01-24T07:34:53.534Z,76.08
2019-01-24T07:35:53.730Z,76.17
2019-01-24T07:36:54.216Z,76.09
2019-01-24T07:37:53.504Z,75.74
2019-01-24T07:38:53.520Z,75.88
2019-01-24T07:39:53.632Z,76.03
2019-01-24T07:40:53.575Z,76.04
2019-01-24T07:41:53.652Z,75.98
2019-01-24T07:42:53.652Z,75.91
2019-01-24T07:43:53.761Z,75.61
2019-01-24T07:44:53.769Z,74.83
2019-01-24T07:45:53.558Z,74.4
2019-01-24T07:46:54.346Z,74.92
2019-01-24T07:47:53.699Z,74.96
2019-01-24T07:48:53.643Z,74.86
2019-01-24T07:49:53.792Z,74.85
2019-01-24T07:50:53.503Z,74.76
2019-01-24T07:51:53.723Z,74.92
2019-01-24T07:52:53.918Z,74.71
2019-01-24T07:53:53.684Z,74.65
2019-01-24T07:54:53.541Z,74.6
2019-01-24T07:55:53.548Z,74.81
2019-01-24T07:56:53.745Z,74.22
2019-01-24T07:57:53.513Z,74.01
2019-01-24T07:58:54.979Z,74.09
2019-01-24T07:59:53.506Z,74.08
2019-01-24T08:00:53.716Z,74.15
2019-01-24T08:01:53.728Z,74.18
2019-01-24T08:02:53.629Z,73.93
2019-01-24T08:03:53.628Z,73.9
2019-01-24T08:04:53.509Z,73.88
2019-01-24T08:05:53.745Z,75.2
2019-01-24T08:06:53.492Z,75.83
2019-01-24T08:07:53.465Z,76.25
2019-01-24T08:08:53.506Z,76.29
2019-01-24T08:09:53.478Z,76.38
2019-01-24T08:10:53.628Z,76.66
2019-01-24T08:11:53.536Z,76.66
2019-01-24T08:12:53.461Z,77.11
2019-01-24T08:13:53.499Z,77.28
2019-01-24T08:14:53.597Z,77.26
2019-01-24T08:15:53.485Z,77.15
2019-01-24T08:16:53.494Z,76.96
2019-01-24T08:17:53.481Z,77.1
2019-01-24T08:18:53.483Z,77.18
2019-01-24T08:19:53.498Z,77.15
2019-01-24T08:20:53.462Z,76.8
2019-01-24T08:21:53.705Z,76.68
2019-01-24T08:22:53.481Z,76.51
2019-01-24T08:23:53.477Z,76.45
2019-01-24T08:24:53.466Z,76.71
2019-01-24T08:25:53.782Z,76.68
2019-01-24T08:26:53.510Z,76.36
2019-01-24T08:27:55.249Z,76.58
2019-01-24T08:28:53.504Z,76.43
2019-01-24T08:29:55.927Z,76.33
2019-01-24T08:30:54.046Z,76
2019-01-24T08:31:53.507Z,76.09
2019-01-24T08:32:53.725Z,76.25
2019-01-24T08:33:53.823Z,76.17
2019-01-24T08:34:53.631Z,76.31
2019-01-24T08:35:53.561Z,76.28
2019-01-24T08:36:53.398Z,75.21
2019-01-24T08:37:53.447Z,75.39
2019-01-24T08:38:59.931Z,75.33
2019-01-24T08:39:53.477Z,75.49
2019-01-24T08:40:53.733Z,75.14
2019-01-24T08:41:55.083Z,75.44
2019-01-24T08:42:53.614Z,75.2
2019-01-24T08:43:53.685Z,75.11
2019-01-24T08:44:53.395Z,75.18
2019-01-24T08:45:53.530Z,75.51
2019-01-24T08:46:53.439Z,75.16
2019-01-24T08:47:53.417Z,75.12
2019-01-24T08:48:54.241Z,75.34
2019-01-24T08:49:53.626Z,75.69
2019-01-24T08:50:53.365Z,75.73
2019-01-24T08:51:53.534Z,75.62
2019-01-24T08:52:53.608Z,75.43
2019-01-24T08:53:53.465Z,75.39
2019-01-24T08:54:53.737Z,75.12
2019-01-24T08:55:53.671Z,75.26
2019-01-24T08:56:53.551Z,75.3
2019-01-24T08:57:54.037Z,75.43
2019-01-24T08:58:55.268Z,75.68
2019-01-24T08:59:53.467Z,75.72
2019-01-24T09:00:53.394Z,75.67
2019-01-24T09:01:53.507Z,75.61
2019-01-24T09:02:53.519Z,75.27
2019-01-24T09:03:53.790Z,75.25
2019-01-24T09:04:53.534Z,75.15
2019-01-24T09:05:53.905Z,75.29
2019-01-24T09:06:53.696Z,75.29
2019-01-24T09:07:53.496Z,75.28
2019-01-24T09:08:53.412Z,75.07
2019-01-24T09:09:53.716Z,75.13
2019-01-24T09:10:53.522Z,75.51
2019-01-24T09:11:53.588Z,75.51
2019-01-24T09:12:53.519Z,75.44
2019-01-24T09:13:53.987Z,75.14
2019-01-24T09:14:53.706Z,75.42
2019-01-24T09:15:53.689Z,75.61
2019-01-24T09:16:53.368Z,76.18
2019-01-24T09:17:53.491Z,76.02
2019-01-24T09:18:53.336Z,75.91
2019-01-24T09:19:54.295Z,75.83
2019-01-24T09:20:53.616Z,75.71
2019-01-24T09:21:53.528Z,75.7
2019-01-24T09:22:55.786Z,75.45
2019-01-24T09:23:53.463Z,75.71
2019-01-24T09:24:53.338Z,76.36
2019-01-24T09:25:53.583Z,76.01
2019-01-24T09:26:53.644Z,76.19
2019-01-24T09:27:53.318Z,75.94
2019-01-24T09:28:55.134Z,76.15
2019-01-24T09:29:53.356Z,76.08
2019-01-24T09:30:54.900Z,76.15
2019-01-24T09:31:53.431Z,76.2
2019-01-24T09:32:53.373Z,76.29
2019-01-24T09:33:53.436Z,76.11
2019-01-24T09:34:53.474Z,75.95
2019-01-24T09:35:53.323Z,75.72
2019-01-24T09:36:53.486Z,75.27
2019-01-24T09:37:53.364Z,75.74
2019-01-24T09:38:55.141Z,76.16
2019-01-24T09:39:55.142Z,76.2
2019-01-24T09:40:53.757Z,76.36
2019-01-24T09:41:53.622Z,76.24
2019-01-24T09:42:53.531Z,76.38
2019-01-24T09:43:53.485Z,76.38
2019-01-24T09:44:53.399Z,76.66
2019-01-24T09:45:53.583Z,76.34
2019-01-24T09:46:53.392Z,76.53
2019-01-24T09:47:53.527Z,76.26
2019-01-24T09:48:53.390Z,76.24
2019-01-24T09:49:53.388Z,76
2019-01-24T09:50:53.288Z,75.93
2019-01-24T09:51:53.402Z,75.78
2019-01-24T09:52:53.498Z,75.81
2019-01-24T09:53:53.247Z,76.04
2019-01-24T09:54:53.341Z,76.09
2019-01-24T09:55:53.263Z,76.39
2019-01-24T09:56:53.285Z,76.21
2019-01-24T09:57:53.356Z,76.62
2019-01-24T09:58:53.406Z,76.46
2019-01-24T09:59:54.198Z,75.79
2019-01-24T10:00:53.226Z,75.78
2019-01-24T10:01:53.261Z,75.93
2019-01-24T10:02:53.465Z,76.08
2019-01-24T10:03:53.509Z,75.69
2019-01-24T10:04:53.293Z,75.88
2019-01-24T10:05:53.259Z,75.67
2019-01-24T10:06:53.887Z,75.75
2019-01-24T10:07:53.602Z,75.72
2019-01-24T10:08:54.458Z,75.66
2019-01-24T10:09:53.347Z,75.66
2019-01-24T10:10:53.295Z,75.66
2019-01-24T10:11:54.809Z,75.89
2019-01-24T10:12:59.953Z,75.49
2019-01-24T10:13:53.414Z,75.49
2019-01-24T10:14:53.513Z,75.22
2019-01-24T10:15:53.493Z,75.93
2019-01-24T10:16:53.397Z,76.11
2019-01-24T10:17:53.715Z,76
2019-01-24T10:18:53.224Z,75.8
2019-01-24T10:19:53.476Z,75.45
2019-01-24T10:20:53.288Z,75.32
2019-01-24T10:21:53.781Z,75.04
2019-01-24T10:22:53.810Z,75.06
2019-01-24T10:23:53.384Z,75.05
2019-01-24T10:26:53.803Z,75.29
2019-01-24T10:27:54.687Z,75.13
2019-01-24T10:28:54.345Z,75.17
2019-01-24T10:29:53.576Z,74.54
2019-01-24T10:30:56.555Z,74.71
2019-01-24T10:32:54.452Z,74.53
2019-01-24T10:33:54.236Z,74.93
2019-01-24T10:34:53.293Z,74.81
2019-01-24T10:35:53.245Z,74.75
2019-01-24T10:36:55.152Z,75.08
2019-01-24T10:37:54.562Z,75.22
2019-01-24T10:38:53.431Z,75.23
2019-01-24T10:39:55.331Z,75.21
2019-01-24T10:40:53.517Z,75.2
2019-01-24T10:41:53.516Z,75.3
2019-01-24T10:42:53.417Z,75.54
2019-01-24T10:44:01.598Z,75.39
2019-01-24T10:44:53.339Z,74.92
2019-01-24T10:45:53.454Z,74.79
2019-01-24T10:46:53.684Z,74.81
2019-01-24T10:47:56.256Z,74.66
2019-01-24T10:49:00.603Z,74.59
2019-01-24T10:49:55.062Z,74.76
2019-01-24T10:51:53.365Z,74.56
2019-01-24T10:52:53.729Z,74.83
2019-01-24T10:53:54.732Z,75.12
2019-01-24T10:54:53.486Z,74.23
2019-01-24T10:55:54.948Z,74.15
2019-01-24T10:56:54.295Z,74.01
2019-01-24T10:57:54.127Z,74.17
2019-01-24T10:58:53.220Z,74.33
2019-01-24T10:59:53.341Z,73.99
2019-01-24T11:00:53.378Z,74.04
2019-01-24T11:01:53.233Z,74.16
2019-01-24T11:02:53.296Z,74.11
2019-01-24T11:03:53.219Z,74.1
2019-01-24T11:04:53.396Z,73.75
2019-01-24T11:05:53.312Z,73.94
2019-01-24T11:06:54.245Z,74.07
2019-01-24T11:07:53.299Z,74.19
2019-01-24T11:08:53.399Z,74.05
2019-01-24T11:09:53.436Z,74.12
2019-01-24T11:10:53.274Z,74.11
2019-01-24T11:11:53.759Z,74
2019-01-24T11:12:53.213Z,73.9
2019-01-24T11:13:53.240Z,74.07
2019-01-24T11:14:53.506Z,74.18
2019-01-24T11:15:53.310Z,74.2
2019-01-24T11:16:53.515Z,74.37
2019-01-24T11:17:55.010Z,74.27
2019-01-24T11:18:53.394Z,74.48
2019-01-24T11:19:53.189Z,74.48
2019-01-24T11:20:53.359Z,74.23
2019-01-24T11:21:53.286Z,74.13
2019-01-24T11:22:53.286Z,74.54
2019-01-24T11:23:53.433Z,74.15
2019-01-24T11:25:53.423Z,74.34
2019-01-24T11:26:53.280Z,74.51
2019-01-24T11:27:53.188Z,74.22
2019-01-24T11:28:53.193Z,74.39
2019-01-24T11:29:53.148Z,74.48
2019-01-24T11:30:53.380Z,74.39
2019-01-24T11:31:53.132Z,74.61
2019-01-24T11:32:53.146Z,74.64
2019-01-24T11:33:53.223Z,74.64
2019-01-24T11:35:53.175Z,75.12
2019-01-24T11:36:57.581Z,74.72
2019-01-24T11:37:54.237Z,74.89
2019-01-24T11:38:56.159Z,74.89
2019-01-24T11:39:53.276Z,75.39
2019-01-24T11:40:53.324Z,75.26
2019-01-24T11:41:53.150Z,75.15
2019-01-24T11:42:53.319Z,75.17
2019-01-24T11:43:53.148Z,75.38
2019-01-24T11:44:53.140Z,75.08
2019-01-24T11:45:53.549Z,74.88
2019-01-24T11:46:53.144Z,75.28
2019-01-24T11:47:53.413Z,75.27
2019-01-24T11:48:53.508Z,75.36
2019-01-24T11:49:53.129Z,75.37
2019-01-24T11:50:53.178Z,75.34
2019-01-24T11:51:53.565Z,75.44
2019-01-24T11:52:53.187Z,75.42
2019-01-24T11:53:53.495Z,75.24
2019-01-24T11:54:53.162Z,75.25
2019-01-24T11:55:53.088Z,75.07
2019-01-24T11:56:53.450Z,75.43
2019-01-24T11:57:53.220Z,75.1
2019-01-24T11:58:53.275Z,74.7
2019-01-24T11:59:53.117Z,75.03
2019-01-24T12:00:53.286Z,75.09
2019-01-24T12:01:53.200Z,75.09
2019-01-24T12:02:53.295Z,75.28
2019-01-24T12:03:53.104Z,75.27
2019-01-24T12:04:53.192Z,75.33
2019-01-24T12:05:53.322Z,75.2
2019-01-24T12:06:53.242Z,75.3
2019-01-24T12:07:53.262Z,75.26
2019-01-24T12:08:53.046Z,75.28
2019-01-24T12:09:53.163Z,75.1
2019-01-24T12:10:53.337Z,74.96
2019-01-24T12:11:53.907Z,74.83
2019-01-24T12:12:53.259Z,74.78
2019-01-24T12:13:53.171Z,74.8
2019-01-24T12:14:53.379Z,74.57
2019-01-24T12:15:53.128Z,74.85
2019-01-24T12:16:53.033Z,74.81
2019-01-24T12:17:53.053Z,74.59
2019-01-24T12:18:53.223Z,74.4
2019-01-24T12:19:54.874Z,74.3
2019-01-24T12:20:53.118Z,74.15
2019-01-24T12:21:53.592Z,74.48
2019-01-24T12:22:53.364Z,74.27
2019-01-24T12:23:53.641Z,74.46
2019-01-24T12:24:53.035Z,73.96
2019-01-24T12:25:53.250Z,73.48
2019-01-24T12:26:53.383Z,73.78
2019-01-24T12:27:53.980Z,73.43
2019-01-24T12:28:53.080Z,73.3
2019-01-24T12:29:53.160Z,73.38
2019-01-24T12:30:53.168Z,72.99
2019-01-24T12:31:52.796Z,73.32
2019-01-24T12:32:53.498Z,73.33
2019-01-24T12:33:53.579Z,73.14
2019-01-24T12:34:53.054Z,72.97
2019-01-24T12:35:53.301Z,73.08
2019-01-24T12:36:56.809Z,73.04
2019-01-24T12:37:53.065Z,73.16
2019-01-24T12:38:53.751Z,73.06
2019-01-24T12:39:53.381Z,73.16
2019-01-24T12:40:53.321Z,72.93
2019-01-24T12:41:53.009Z,73.22
2019-01-24T12:42:53.460Z,73.32
2019-01-24T12:43:52.990Z,72.86
2019-01-24T12:44:52.981Z,73.01
2019-01-24T12:45:53.678Z,73.16
2019-01-24T12:46:53.277Z,73.4
2019-01-24T12:47:53.319Z,73.03
2019-01-24T12:48:53.393Z,73.03
2019-01-24T12:49:53.060Z,73.31
2019-01-24T12:50:53.405Z,73.48
2019-01-24T12:51:53.225Z,73.35
2019-01-24T12:52:53.063Z,73.41
2019-01-24T12:53:53.007Z,73.46
2019-01-24T12:54:52.950Z,73.19
2019-01-24T12:55:53.050Z,73.03
2019-01-24T12:56:52.998Z,73.11
2019-01-24T12:57:53.261Z,73.45
2019-01-24T12:59:07.785Z,73.57
2019-01-24T12:59:54.197Z,73.39
2019-01-24T13:00:53.278Z,73.54
2019-01-24T13:01:53.180Z,73.62
2019-01-24T13:02:54.832Z,73.65